Time;durP1;ratioP1;P1;durP2;ratioP2;P2;SDS_P1;SDS_P2;PMS_P1;PMS_P2;Temp;Humidity;BMP_temperature;BMP_pressure;BME280_temperature;BME280_humidity;BME280_pressure;Samples;Min_cycle;Max_cycle;Signal;HPM_P1;HPM_P2
2022/07/19 00:00:12;;;;;;;1.03;0.90;;;23.30;1.00;;;;;;5124103;28;20445;-71
2022/07/19 00:02:39;;;;;;;2.00;0.93;;;23.30;1.00;;;;;;5121994;28;20459;-72
2022/07/19 00:05:08;;;;;;;1.40;0.90;;;23.30;1.00;;;;;;5122576;28;20477;-71
2022/07/19 00:07:35;;;;;;;1.50;0.67;;;23.20;1.00;;;;;;5122195;28;20519;-71
2022/07/19 00:10:06;;;;;;;0.90;0.70;;;23.20;1.00;;;;;;5121207;28;20460;-71
2022/07/19 00:12:34;;;;;;;1.20;0.77;;;23.20;1.00;;;;;;5120384;28;20448;-71
2022/07/19 00:15:03;;;;;;;1.20;0.80;;;23.20;1.00;;;;;;5119901;28;20474;-71
2022/07/19 00:17:30;;;;;;;1.43;0.90;;;23.20;1.00;;;;;;5119432;28;20527;-71
2022/07/19 00:19:56;;;;;;;1.23;1.00;;;23.20;1.00;;;;;;5119064;28;20869;-71
2022/07/19 00:22:24;;;;;;;1.60;0.90;;;23.30;1.00;;;;;;5119043;28;20444;-71
2022/07/19 00:24:50;;;;;;;1.30;0.83;;;23.40;1.00;;;;;;5119146;28;20489;-71
2022/07/19 00:27:17;;;;;;;1.03;0.90;;;23.40;1.00;;;;;;5117544;28;20480;-71
2022/07/19 00:29:44;;;;;;;0.90;0.80;;;23.40;1.00;;;;;;5119005;28;20472;-72
2022/07/19 00:32:13;;;;;;;1.10;0.90;;;23.40;1.00;;;;;;5118862;28;20445;-72
2022/07/19 00:34:40;;;;;;;1.57;0.87;;;23.30;1.00;;;;;;5118741;28;20560;-71
2022/07/19 00:37:06;;;;;;;2.50;0.90;;;23.30;1.00;;;;;;5118922;28;20476;-72
2022/07/19 00:39:33;;;;;;;1.10;0.73;;;23.20;1.00;;;;;;5118528;28;20933;-71
2022/07/19 00:42:00;;;;;;;1.00;0.80;;;23.10;1.00;;;;;;5118656;28;20468;-73
2022/07/19 00:44:27;;;;;;;1.00;0.70;;;23.10;1.00;;;;;;5117773;28;20514;-71
2022/07/19 00:46:55;;;;;;;0.97;0.80;;;23.00;1.00;;;;;;5118969;28;20448;-71
2022/07/19 00:49:24;;;;;;;1.37;0.80;;;22.90;1.00;;;;;;5118180;28;20496;-71
2022/07/19 00:51:52;;;;;;;2.50;1.00;;;22.80;1.00;;;;;;5118529;28;20484;-72
2022/07/19 00:54:20;;;;;;;2.10;0.90;;;22.80;1.00;;;;;;5118440;28;20942;-72
2022/07/19 00:56:50;;;;;;;1.00;0.80;;;22.80;1.00;;;;;;5119127;28;20456;-72
2022/07/19 00:59:18;;;;;;;1.57;0.90;;;22.80;1.00;;;;;;5118536;28;20480;-72
2022/07/19 01:01:46;;;;;;;1.30;1.20;;;22.90;1.00;;;;;;5117993;28;20487;-71
2022/07/19 01:04:13;;;;;;;1.50;1.00;;;23.00;1.00;;;;;;5117860;28;20580;-71
2022/07/19 01:06:45;;;;;;;1.10;0.80;;;22.90;1.00;;;;;;5118650;28;20491;-71
2022/07/19 01:09:12;;;;;;;1.50;0.80;;;22.90;1.00;;;;;;5118266;28;20964;-71
2022/07/19 01:11:39;;;;;;;1.17;0.90;;;22.80;1.00;;;;;;5116884;28;20491;-72
2022/07/19 01:14:07;;;;;;;1.13;0.80;;;22.80;1.00;;;;;;5116881;28;20803;-71
2022/07/19 01:16:33;;;;;;;0.93;0.80;;;22.80;1.00;;;;;;5116755;28;20531;-72
2022/07/19 01:19:00;;;;;;;1.40;1.00;;;22.90;1.00;;;;;;5116430;28;20760;-71
2022/07/19 01:21:30;;;;;;;1.33;0.80;;;22.80;1.00;;;;;;5116640;28;20532;-71
2022/07/19 01:23:57;;;;;;;1.40;0.90;;;22.80;1.00;;;;;;5116417;28;20460;-71
2022/07/19 01:26:24;;;;;;;1.63;0.80;;;22.80;1.00;;;;;;5117314;28;20520;-71
2022/07/19 01:28:51;;;;;;;1.10;0.80;;;22.70;1.00;;;;;;5116751;28;20561;-71
2022/07/19 01:31:18;;;;;;;1.10;0.93;;;22.70;1.00;;;;;;5116759;28;20437;-72
2022/07/19 01:33:46;;;;;;;1.17;0.80;;;22.60;1.00;;;;;;5117041;28;20459;-71
2022/07/19 01:36:13;;;;;;;1.13;0.80;;;22.60;1.00;;;;;;5117141;28;20500;-70
2022/07/19 01:38:41;;;;;;;1.00;0.90;;;22.60;1.00;;;;;;5117025;28;20488;-71
2022/07/19 01:41:08;;;;;;;1.00;0.87;;;22.60;1.00;;;;;;5116627;28;20515;-71
2022/07/19 01:43:36;;;;;;;1.07;0.80;;;22.60;1.00;;;;;;5116711;28;20452;-70
2022/07/19 01:46:03;;;;;;;0.90;0.80;;;22.60;1.00;;;;;;5117294;28;20527;-71
2022/07/19 01:48:30;;;;;;;3.20;0.80;;;22.70;1.00;;;;;;5116976;28;20488;-71
2022/07/19 01:50:58;;;;;;;0.80;0.70;;;22.70;1.00;;;;;;5117295;28;20536;-71
2022/07/19 01:53:25;;;;;;;1.10;0.80;;;22.70;1.00;;;;;;5117148;28;20468;-71
2022/07/19 01:55:53;;;;;;;0.97;0.83;;;22.60;1.00;;;;;;5116819;28;20914;-71
2022/07/19 01:58:20;;;;;;;1.00;0.80;;;22.60;1.00;;;;;;5116873;28;20456;-72
2022/07/19 02:00:47;;;;;;;1.20;1.00;;;22.60;1.00;;;;;;5116964;28;20487;-71
2022/07/19 02:03:14;;;;;;;1.00;0.80;;;22.60;1.00;;;;;;5116753;28;20725;-71
2022/07/19 02:05:41;;;;;;;0.90;0.80;;;22.60;1.00;;;;;;5116862;28;20995;-71
2022/07/19 02:08:08;;;;;;;6.57;0.90;;;22.60;1.00;;;;;;5116920;28;20484;-72
2022/07/19 02:10:35;;;;;;;1.20;1.00;;;22.60;1.00;;;;;;5117139;28;20483;-71
2022/07/19 02:13:03;;;;;;;4.10;0.90;;;22.60;1.00;;;;;;5116420;28;20487;-71
2022/07/19 02:15:30;;;;;;;1.00;0.80;;;22.50;1.00;;;;;;5116715;28;20494;-71
2022/07/19 02:17:57;;;;;;;1.13;0.80;;;22.50;1.00;;;;;;5116268;28;20816;-71
2022/07/19 02:20:25;;;;;;;2.00;0.90;;;22.40;1.00;;;;;;5117234;28;20437;-71
2022/07/19 02:22:52;;;;;;;1.03;0.80;;;22.40;1.00;;;;;;5116431;28;20795;-71
2022/07/19 02:25:19;;;;;;;0.90;0.80;;;22.40;1.00;;;;;;5116426;28;20481;-71
2022/07/19 02:27:46;;;;;;;1.00;0.80;;;22.40;1.00;;;;;;5116704;28;20472;-71
2022/07/19 02:30:17;;;;;;;2.07;0.80;;;22.40;1.00;;;;;;5116765;28;20445;-71
2022/07/19 02:32:44;;;;;;;1.00;0.80;;;22.50;1.00;;;;;;5116435;28;20860;-71
2022/07/19 02:35:12;;;;;;;1.03;0.80;;;22.50;1.00;;;;;;5116842;28;20483;-72
2022/07/19 02:37:40;;;;;;;1.23;0.90;;;22.50;1.00;;;;;;5116391;28;20539;-71
2022/07/19 02:40:08;;;;;;;1.10;0.80;;;22.30;1.00;;;;;;5116563;28;20512;-71
2022/07/19 02:42:35;;;;;;;1.00;0.80;;;22.30;1.00;;;;;;5116389;28;20506;-71
2022/07/19 02:45:02;;;;;;;4.90;0.87;;;22.10;1.00;;;;;;5116584;28;20523;-71
2022/07/19 02:47:31;;;;;;;1.30;0.80;;;22.10;1.00;;;;;;5116742;28;20441;-71
2022/07/19 02:49:58;;;;;;;1.17;0.80;;;22.10;1.00;;;;;;5116479;28;20493;-71
2022/07/19 02:52:24;;;;;;;0.93;0.80;;;22.10;1.00;;;;;;5116992;28;20476;-71
2022/07/19 02:54:52;;;;;;;1.00;0.90;;;22.10;1.00;;;;;;5116476;28;20808;-72
2022/07/19 02:57:19;;;;;;;1.03;0.90;;;22.10;1.00;;;;;;5116434;28;20816;-72
2022/07/19 02:59:46;;;;;;;1.20;0.80;;;22.10;1.00;;;;;;5116219;28;20503;-71
2022/07/19 03:02:13;;;;;;;1.20;0.93;;;22.00;1.00;;;;;;5116232;28;20472;-71
2022/07/19 03:04:41;;;;;;;1.30;0.90;;;22.10;1.00;;;;;;5116205;28;20825;-71
2022/07/19 03:07:08;;;;;;;1.00;0.87;;;22.00;1.00;;;;;;5115925;28;20927;-71
2022/07/19 03:09:35;;;;;;;2.00;0.90;;;22.10;1.00;;;;;;5119358;28;20507;-71
2022/07/19 03:12:02;;;;;;;1.03;0.80;;;22.00;1.00;;;;;;5120744;28;20547;-71
2022/07/19 03:14:29;;;;;;;2.17;1.00;;;21.90;1.00;;;;;;5120302;28;20795;-71
2022/07/19 03:16:56;;;;;;;1.00;0.90;;;21.90;1.00;;;;;;5120167;28;20509;-71
2022/07/19 03:19:25;;;;;;;2.30;0.90;;;21.80;1.00;;;;;;5105124;28;20477;-70
2022/07/19 03:21:53;;;;;;;1.23;0.80;;;21.80;1.00;;;;;;5099519;28;20452;-73
2022/07/19 03:24:20;;;;;;;1.00;0.80;;;21.80;1.00;;;;;;5099376;28;20510;-73
2022/07/19 03:26:47;;;;;;;1.30;0.90;;;21.80;1.00;;;;;;5099161;28;21009;-73
2022/07/19 03:29:14;;;;;;;1.93;0.90;;;21.80;1.00;;;;;;5096990;28;20457;-70
2022/07/19 03:31:41;;;;;;;1.10;0.80;;;21.90;1.00;;;;;;5098498;28;20487;-73
2022/07/19 03:34:08;;;;;;;1.80;0.90;;;21.80;1.00;;;;;;5097512;28;20548;-69
2022/07/19 03:36:35;;;;;;;1.00;0.87;;;21.70;1.00;;;;;;5095566;28;20477;-71
2022/07/19 03:39:03;;;;;;;1.53;0.90;;;21.60;1.00;;;;;;5095392;28;20492;-71
2022/07/19 03:41:30;;;;;;;1.77;0.90;;;21.60;1.00;;;;;;5078014;28;20568;-71
2022/07/19 03:43:57;;;;;;;1.20;0.90;;;21.60;1.00;;;;;;5074932;28;20454;-71
2022/07/19 03:46:25;;;;;;;1.27;1.00;;;21.50;1.00;;;;;;5075215;28;20477;-72
2022/07/19 03:48:52;;;;;;;1.53;0.90;;;21.60;1.00;;;;;;5076592;28;20496;-72
2022/07/19 03:51:19;;;;;;;1.30;0.80;;;21.60;1.00;;;;;;5077325;28;20925;-72
2022/07/19 03:53:46;;;;;;;1.83;0.90;;;21.60;1.00;;;;;;5078524;28;20497;-72
2022/07/19 03:56:17;;;;;;;1.53;1.00;;;21.60;1.00;;;;;;5078493;28;20471;-71
2022/07/19 03:58:44;;;;;;;1.00;0.80;;;21.60;1.00;;;;;;5078636;28;20465;-71
2022/07/19 04:01:11;;;;;;;0.90;0.80;;;21.70;1.00;;;;;;5078445;28;20814;-72
2022/07/19 04:03:39;;;;;;;1.17;0.90;;;21.70;1.00;;;;;;5078544;28;20484;-72
2022/07/19 04:06:06;;;;;;;1.60;0.90;;;21.70;1.00;;;;;;5078146;28;20921;-71
2022/07/19 04:08:33;;;;;;;1.80;0.93;;;21.70;1.00;;;;;;5078478;28;20450;-72
2022/07/19 04:11:00;;;;;;;0.90;0.80;;;21.70;1.00;;;;;;5078180;28;20493;-72
2022/07/19 04:13:28;;;;;;;3.13;1.00;;;21.80;1.00;;;;;;5078440;28;20519;-72
2022/07/19 04:15:55;;;;;;;1.10;1.00;;;21.80;1.00;;;;;;5077835;28;20926;-71
2022/07/19 04:18:22;;;;;;;3.87;1.00;;;21.90;1.00;;;;;;5077733;28;20966;-70
2022/07/19 04:20:49;;;;;;;2.43;1.00;;;21.90;1.00;;;;;;5075713;28;20830;-73
2022/07/19 04:23:16;;;;;;;1.37;1.00;;;21.80;1.00;;;;;;5077077;28;20494;-73
2022/07/19 04:25:43;;;;;;;1.87;1.10;;;21.70;1.00;;;;;;5076998;28;20521;-74
2022/07/19 04:28:10;;;;;;;1.30;0.90;;;21.60;1.00;;;;;;5077174;28;20458;-74
2022/07/19 04:30:38;;;;;;;1.53;0.90;;;21.60;1.00;;;;;;5076624;28;20515;-74
2022/07/19 04:33:05;;;;;;;1.60;0.80;;;21.60;1.00;;;;;;5078351;28;20505;-74
2022/07/19 04:35:32;;;;;;;1.67;1.03;;;21.50;1.00;;;;;;5078318;28;20474;-73
2022/07/19 04:37:59;;;;;;;1.97;1.10;;;21.60;1.00;;;;;;5078078;28;20481;-72
2022/07/19 04:40:30;;;;;;;3.03;0.90;;;21.50;1.00;;;;;;5078016;28;20536;-72
2022/07/19 04:42:57;;;;;;;1.10;1.00;;;21.60;1.00;;;;;;5078556;28;20439;-73
2022/07/19 04:45:24;;;;;;;2.37;1.00;;;21.70;1.00;;;;;;5078150;28;20475;-73
2022/07/19 04:47:52;;;;;;;1.87;0.97;;;21.80;1.00;;;;;;5077890;28;20481;-72
2022/07/19 04:50:19;;;;;;;1.97;0.87;;;21.90;1.00;;;;;;5078114;28;20458;-73
2022/07/19 04:52:46;;;;;;;1.50;0.90;;;21.90;1.00;;;;;;5075740;28;20458;-73
2022/07/19 04:55:13;;;;;;;1.40;0.90;;;21.80;1.00;;;;;;5075262;28;20442;-73
2022/07/19 04:57:40;;;;;;;1.30;0.87;;;21.80;1.00;;;;;;5075703;28;20947;-71
2022/07/19 05:00:09;;;;;;;2.37;1.00;;;21.80;1.00;;;;;;5076291;28;20499;-72
2022/07/19 05:02:36;;;;;;;1.20;1.00;;;21.90;1.00;;;;;;5075873;28;20816;-72
2022/07/19 05:05:06;;;;;;;3.63;1.00;;;22.10;1.00;;;;;;5075693;28;20967;-73
2022/07/19 05:07:33;;;;;;;1.70;1.00;;;22.20;1.00;;;;;;5076808;28;20506;-73
2022/07/19 05:10:00;;;;;;;1.10;0.90;;;22.20;1.00;;;;;;5076041;28;20540;-73
2022/07/19 05:12:27;;;;;;;1.00;0.90;;;22.20;1.00;;;;;;5076362;28;20537;-73
2022/07/19 05:14:54;;;;;;;1.50;0.90;;;22.10;1.00;;;;;;5075406;28;20504;-74
2022/07/19 05:17:21;;;;;;;1.20;1.00;;;22.20;1.00;;;;;;5075914;28;20788;-73
2022/07/19 05:19:48;;;;;;;1.30;0.93;;;22.20;1.00;;;;;;5076213;28;20458;-73
2022/07/19 05:22:16;;;;;;;2.07;0.87;;;22.10;1.00;;;;;;5075533;28;20832;-73
2022/07/19 05:24:43;;;;;;;1.70;0.90;;;22.10;1.00;;;;;;5074768;28;20848;-73
2022/07/19 05:27:10;;;;;;;0.90;0.80;;;22.10;1.00;;;;;;5075383;28;20861;-73
2022/07/19 05:29:37;;;;;;;1.50;0.93;;;22.00;1.00;;;;;;5076291;28;20492;-73
2022/07/19 05:32:04;;;;;;;2.10;0.90;;;22.00;1.00;;;;;;5075308;28;20473;-73
2022/07/19 05:34:31;;;;;;;1.47;0.90;;;22.10;1.00;;;;;;5074630;28;20791;-73
2022/07/19 05:36:58;;;;;;;2.37;1.10;;;22.10;1.00;;;;;;5072944;28;20442;-73
2022/07/19 05:39:26;;;;;;;2.30;0.90;;;22.10;1.00;;;;;;5072757;28;20771;-73
2022/07/19 05:41:53;;;;;;;1.30;0.90;;;22.20;1.00;;;;;;5070396;28;21031;-73
2022/07/19 05:44:21;;;;;;;1.70;1.00;;;22.30;1.00;;;;;;5070995;28;20970;-73
2022/07/19 05:46:48;;;;;;;1.10;1.00;;;22.40;1.00;;;;;;5072741;28;20945;-72
2022/07/19 05:49:15;;;;;;;1.40;1.10;;;22.30;1.00;;;;;;5073058;28;20563;-72
2022/07/19 05:51:43;;;;;;;1.70;1.23;;;22.30;1.00;;;;;;5073445;28;20964;-72
2022/07/19 05:54:10;;;;;;;2.20;1.30;;;22.20;1.00;;;;;;5072704;28;20481;-72
2022/07/19 05:56:39;;;;;;;1.10;1.00;;;22.20;1.00;;;;;;5073912;28;20446;-73
2022/07/19 05:59:06;;;;;;;2.83;1.00;;;22.20;1.00;;;;;;5074100;28;20545;-73
2022/07/19 06:01:33;;;;;;;1.10;1.00;;;22.20;1.00;;;;;;5073308;28;20542;-73
2022/07/19 06:04:01;;;;;;;1.17;0.90;;;22.20;1.00;;;;;;5074509;28;20458;-73
2022/07/19 06:06:29;;;;;;;1.00;0.90;;;22.30;1.00;;;;;;5075154;28;21012;-73
2022/07/19 06:08:57;;;;;;;1.10;0.90;;;22.30;1.00;;;;;;5073970;28;20446;-73
2022/07/19 06:11:24;;;;;;;2.03;1.10;;;22.40;1.00;;;;;;5073831;28;20502;-73
2022/07/19 06:13:53;;;;;;;1.57;1.10;;;22.50;1.00;;;;;;5074998;28;20798;-73
2022/07/19 06:16:21;;;;;;;4.53;1.00;;;22.70;1.00;;;;;;5075512;28;20811;-74
2022/07/19 06:18:49;;;;;;;1.30;1.00;;;22.80;1.00;;;;;;5075314;28;20705;-73
2022/07/19 06:21:18;;;;;;;1.77;1.00;;;23.00;1.00;;;;;;5075289;28;20490;-73
2022/07/19 06:23:46;;;;;;;1.17;0.93;;;23.10;1.00;;;;;;5075083;28;20831;-73
2022/07/19 06:26:14;;;;;;;2.80;0.97;;;23.20;1.00;;;;;;5074826;28;20486;-73
2022/07/19 06:28:41;;;;;;;1.20;0.87;;;23.30;1.00;;;;;;5073679;28;20831;-74
2022/07/19 06:31:10;;;;;;;1.20;0.90;;;23.40;1.00;;;;;;5073253;28;20533;-74
2022/07/19 06:33:38;;;;;;;1.10;0.90;;;23.50;1.00;;;;;;5074601;28;20498;-73
2022/07/19 06:36:06;;;;;;;1.00;0.83;;;23.60;1.00;;;;;;5073299;28;20454;-76
2022/07/19 06:38:33;;;;;;;1.80;1.00;;;23.80;1.00;;;;;;5074424;28;20459;-75
2022/07/19 06:41:00;;;;;;;0.90;0.80;;;23.90;1.00;;;;;;5074934;28;20517;-75
2022/07/19 06:43:27;;;;;;;1.40;0.90;;;24.00;1.00;;;;;;5075880;28;20454;-75
2022/07/19 06:45:55;;;;;;;1.53;0.90;;;24.10;1.00;;;;;;5079614;28;20500;-74
2022/07/19 06:48:23;;;;;;;1.00;0.80;;;24.20;1.00;;;;;;5078007;28;20850;-74
2022/07/19 06:50:51;;;;;;;1.00;0.77;;;24.40;1.00;;;;;;5078627;28;20512;-73
2022/07/19 06:53:18;;;;;;;2.22;0.90;;;24.50;1.00;;;;;;5078008;28;20511;-73
2022/07/19 06:55:45;;;;;;;1.20;1.00;;;24.60;1.00;;;;;;5078375;28;20204;-73
2022/07/19 06:58:12;;;;;;;1.30;0.93;;;24.70;1.00;;;;;;5077167;28;20557;-72
2022/07/19 07:00:39;;;;;;;1.57;0.90;;;24.90;1.00;;;;;;5075660;28;20434;-73
2022/07/19 07:03:06;;;;;;;1.33;0.80;;;25.00;1.00;;;;;;5075200;28;20451;-74
2022/07/19 07:05:35;;;;;;;1.70;0.80;;;25.10;1.00;;;;;;5075639;28;20481;-71
2022/07/19 07:08:02;;;;;;;0.97;0.80;;;25.20;1.00;;;;;;5075157;28;20842;-72
2022/07/19 07:10:29;;;;;;;1.00;0.70;;;25.30;1.00;;;;;;5076622;28;20482;-71
2022/07/19 07:12:56;;;;;;;1.40;0.70;;;25.50;1.00;;;;;;5084649;28;20908;-71
2022/07/19 07:15:23;;;;;;;5.33;1.20;;;25.60;1.00;;;;;;5095965;28;20522;-71
2022/07/19 07:17:49;;;;;;;2.53;1.20;;;25.70;1.00;;;;;;5095576;28;20538;-71
2022/07/19 07:20:16;;;;;;;1.17;0.83;;;25.90;1.00;;;;;;5094620;28;20545;-71
2022/07/19 07:22:45;;;;;;;0.97;0.80;;;26.00;1.00;;;;;;5095071;28;20449;-71
2022/07/19 07:25:12;;;;;;;2.63;1.07;;;26.10;1.00;;;;;;5092838;28;20910;-71
2022/07/19 07:27:39;;;;;;;4.10;1.07;;;26.10;1.00;;;;;;5092562;28;20481;-71
2022/07/19 07:30:07;;;;;;;1.37;0.90;;;26.10;1.00;;;;;;5093018;28;20776;-72
2022/07/19 07:32:34;;;;;;;4.03;1.00;;;26.20;1.00;;;;;;5092383;28;20540;-71
2022/07/19 07:35:01;;;;;;;1.03;0.83;;;26.30;1.00;;;;;;5091441;28;20488;-72
2022/07/19 07:37:28;;;;;;;1.30;0.90;;;26.40;1.00;;;;;;5092550;28;20477;-72
2022/07/19 07:39:57;;;;;;;1.50;0.70;;;26.50;1.00;;;;;;5096191;28;20512;-71
2022/07/19 07:42:24;;;;;;;1.83;1.10;;;26.60;1.00;;;;;;5114983;28;20531;-71
2022/07/19 07:44:51;;;;;;;1.83;0.93;;;26.60;1.00;;;;;;5115121;28;20498;-71
2022/07/19 07:47:18;;;;;;;3.00;1.00;;;26.70;1.00;;;;;;5114748;28;20565;-71
2022/07/19 07:49:45;;;;;;;2.93;1.20;;;26.70;1.00;;;;;;5116805;28;20499;-71
2022/07/19 07:52:12;;;;;;;2.20;1.10;;;26.70;1.00;;;;;;5116284;28;20448;-71
2022/07/19 07:54:39;;;;;;;1.27;0.97;;;26.90;1.00;;;;;;5117559;28;20551;-71
2022/07/19 07:57:08;;;;;;;3.00;1.10;;;27.10;1.00;;;;;;5115547;28;20543;-71
2022/07/19 07:59:35;;;;;;;2.70;0.80;;;27.10;1.00;;;;;;5116763;28;20500;-71
2022/07/19 08:02:02;;;;;;;1.63;0.80;;;27.20;1.00;;;;;;5117715;28;20444;-71
2022/07/19 08:04:29;;;;;;;1.57;1.07;;;27.30;1.00;;;;;;5116928;28;20476;-70
2022/07/19 08:06:56;;;;;;;4.50;1.00;;;27.40;1.00;;;;;;5113902;28;20585;-72
2022/07/19 08:09:23;;;;;;;2.13;0.73;;;27.50;1.00;;;;;;5114011;28;20503;-72
2022/07/19 08:11:50;;;;;;;0.70;0.50;;;27.70;1.00;;;;;;5115625;28;20910;-70
2022/07/19 08:14:18;;;;;;;1.33;0.70;;;28.00;1.00;;;;;;5117278;28;20501;-71
2022/07/19 08:16:45;;;;;;;2.17;0.90;;;28.10;1.00;;;;;;5116621;28;20527;-71
2022/07/19 08:19:12;;;;;;;1.93;0.67;;;28.20;1.00;;;;;;5115953;28;20672;-72
2022/07/19 08:21:39;;;;;;;1.50;0.90;;;28.30;1.00;;;;;;5117158;28;20536;-70
2022/07/19 08:24:06;;;;;;;0.97;0.70;;;28.50;1.00;;;;;;5115866;28;20491;-71
2022/07/19 08:26:33;;;;;;;0.80;0.70;;;28.70;1.00;;;;;;5113961;28;20518;-71
2022/07/19 08:29:00;;;;;;;0.70;0.60;;;28.80;1.00;;;;;;5114667;28;20541;-71
2022/07/19 08:31:28;;;;;;;0.70;0.53;;;29.00;1.00;;;;;;5114716;28;20879;-71
2022/07/19 08:33:55;;;;;;;0.70;0.60;;;29.10;1.00;;;;;;5116293;28;20452;-71
2022/07/19 08:36:22;;;;;;;1.00;0.70;;;29.20;1.00;;;;;;5115998;28;20552;-70
2022/07/19 08:38:49;;;;;;;1.80;0.50;;;29.30;1.00;;;;;;5116817;28;20488;-70
2022/07/19 08:41:16;;;;;;;1.17;0.50;;;29.50;1.00;;;;;;5114998;28;20535;-70
2022/07/19 08:43:43;;;;;;;1.98;0.60;;;29.50;99.90;;;;;;5115495;28;20447;-70
2022/07/19 08:46:10;;;;;;;0.90;0.70;;;29.60;99.90;;;;;;5115726;28;20203;-70
2022/07/19 08:48:39;;;;;;;0.70;0.70;;;29.70;99.90;;;;;;5115632;28;20933;-70
2022/07/19 08:51:08;;;;;;;1.10;0.60;;;29.90;99.90;;;;;;5114798;28;20456;-70
2022/07/19 08:53:38;;;;;;;1.27;0.70;;;30.00;99.90;;;;;;5113875;28;20461;-70
2022/07/19 08:57:56;;;;;;;1.53;0.60;;;30.00;99.90;;;;;;5115246;28;21058;-70
2022/07/19 08:58:51;;;;;;;1.33;0.60;;;30.00;99.90;;;;;;5115627;28;20895;-70
2022/07/19 09:01:18;;;;;;;1.13;0.60;;;30.10;99.90;;;;;;5115628;28;20523;-70
2022/07/19 09:04:07;;;;;;;0.70;0.70;;;30.10;99.90;;;;;;5115532;28;20452;-70
2022/07/19 09:06:39;;;;;;;0.93;0.70;;;30.30;99.90;;;;;;5114586;28;20749;-70
2022/07/19 09:09:07;;;;;;;1.47;0.70;;;30.30;99.90;;;;;;5115016;28;20935;-70
2022/07/19 09:11:35;;;;;;;0.70;0.60;;;30.30;99.90;;;;;;5115272;28;20761;-70
2022/07/19 09:14:08;;;;;;;1.00;0.50;;;30.50;99.90;;;;;;5115691;28;20456;-70
2022/07/19 09:17:01;;;;;;;1.87;0.60;;;30.60;99.90;;;;;;5115697;28;20535;-72
2022/07/19 09:19:31;;;;;;;1.40;0.60;;;30.70;99.90;;;;;;5116125;28;20814;-69
2022/07/19 09:22:01;;;;;;;0.70;0.60;;;30.80;99.90;;;;;;5116867;28;20541;-71
2022/07/19 09:24:29;;;;;;;0.60;0.50;;;30.90;99.90;;;;;;5115496;28;20547;-71
2022/07/19 09:26:58;;;;;;;0.70;0.50;;;30.90;99.90;;;;;;5113915;28;20531;-71
2022/07/19 09:29:26;;;;;;;0.93;0.50;;;30.80;99.90;;;;;;5116490;28;21043;-71
2022/07/19 09:32:04;;;;;;;0.90;0.60;;;30.90;99.90;;;;;;5116554;28;20484;-70
2022/07/19 09:34:33;;;;;;;1.30;0.60;;;31.00;99.90;;;;;;5115834;28;20585;-71
2022/07/19 09:37:19;;;;;;;0.63;0.60;;;31.10;99.90;;;;;;5115935;28;20883;-70
2022/07/19 09:39:47;;;;;;;0.80;0.60;;;31.30;99.90;;;;;;5115509;28;20809;-71
2022/07/19 09:42:16;;;;;;;0.70;0.60;;;31.30;99.90;;;;;;5115954;28;20525;-71
2022/07/19 09:44:45;;;;;;;1.43;0.70;;;31.30;99.90;;;;;;5115465;28;20808;-71
2022/07/19 09:47:12;;;;;;;0.90;0.60;;;31.20;99.90;;;;;;5114703;28;20477;-70
2022/07/19 09:49:40;;;;;;;2.33;0.60;;;31.30;99.90;;;;;;5115144;28;21032;-70
2022/07/19 09:52:10;;;;;;;1.13;0.60;;;31.60;99.90;;;;;;5115337;28;20536;-70
2022/07/19 09:54:40;;;;;;;0.97;0.70;;;31.70;99.90;;;;;;5114434;28;20452;-70
2022/07/19 09:57:09;;;;;;;1.53;0.80;;;31.90;99.90;;;;;;5114149;28;20459;-70
2022/07/19 09:59:38;;;;;;;1.13;0.60;;;32.10;99.90;;;;;;5114753;28;20449;-70
2022/07/19 10:02:05;;;;;;;0.73;0.53;;;32.10;99.90;;;;;;5113861;28;20529;-70
2022/07/19 10:04:35;;;;;;;0.80;0.60;;;32.20;99.90;;;;;;5112238;28;20564;-72
2022/07/19 10:07:03;;;;;;;3.60;0.70;;;32.40;99.90;;;;;;5112762;28;20460;-70
2022/07/19 10:09:31;;;;;;;0.90;0.60;;;32.50;99.90;;;;;;5112969;28;20547;-71
2022/07/19 10:11:58;;;;;;;1.77;0.60;;;32.60;99.90;;;;;;5114961;28;20480;-71
2022/07/19 10:14:25;;;;;;;1.20;0.60;;;32.70;99.90;;;;;;5114067;28;20487;-71
2022/07/19 10:17:18;;;;;;;1.00;0.63;;;32.90;99.90;;;;;;5113796;28;20487;-72
2022/07/19 10:19:47;;;;;;;1.33;0.60;;;33.10;99.90;;;;;;5111052;28;20528;-71
2022/07/19 10:22:18;;;;;;;1.13;0.60;;;33.20;99.90;;;;;;5108835;28;20440;-71
2022/07/19 10:24:48;;;;;;;0.73;0.50;;;33.40;99.90;;;;;;5108883;28;20456;-71
2022/07/19 10:27:15;;;;;;;1.10;0.50;;;33.50;99.90;;;;;;5109421;28;20516;-71
2022/07/19 10:29:43;;;;;;;0.73;0.67;;;33.60;99.90;;;;;;5110695;28;20562;-71
2022/07/19 10:32:12;;;;;;;0.87;0.60;;;33.70;99.90;;;;;;5110304;28;20441;-71
2022/07/19 10:34:39;;;;;;;1.30;0.63;;;33.80;99.90;;;;;;5110118;28;20477;-71
2022/07/19 10:37:06;;;;;;;1.13;0.50;;;34.10;99.90;;;;;;5111922;28;20480;-71
2022/07/19 10:39:35;;;;;;;0.90;0.70;;;34.10;99.90;;;;;;5112041;28;20957;-71
2022/07/19 10:42:11;;;;;;;1.17;0.70;;;34.10;99.90;;;;;;5112624;28;20440;-71
2022/07/19 10:45:12;;;;;;;3.00;0.60;;;34.30;99.90;;;;;;5112844;28;20847;-72
2022/07/19 10:48:08;;;;;;;0.87;0.60;;;34.40;99.90;;;;;;5113651;28;20785;-70
2022/07/19 10:50:54;;;;;;;5.17;0.60;;;34.60;99.90;;;;;;5109557;28;20543;-71
2022/07/19 10:54:00;;;;;;;0.70;0.60;;;34.70;99.90;;;;;;5099918;28;20589;-71
2022/07/19 10:56:53;;;;;;;0.70;0.50;;;34.90;99.90;;;;;;5110687;28;20525;-70
2022/07/19 10:59:32;;;;;;;0.80;0.60;;;35.30;99.90;;;;;;5110275;28;20804;-70
2022/07/19 11:02:00;;;;;;;2.40;0.60;;;35.60;99.90;;;;;;5111857;28;20441;-70
2022/07/19 11:04:30;;;;;;;0.80;0.70;;;35.50;99.90;;;;;;5111500;28;20453;-70
2022/07/19 11:07:17;;;;;;;1.13;0.60;;;34.80;99.90;;;;;;5111436;28;20444;-70
2022/07/19 11:09:47;;;;;;;0.90;0.60;;;35.20;99.90;;;;;;5110973;28;20452;-69
2022/07/19 11:12:28;;;;;;;1.10;0.70;;;35.40;99.90;;;;;;5108520;28;20603;-70
2022/07/19 11:14:55;;;;;;;1.50;0.70;;;35.40;99.90;;;;;;5110697;28;20771;-70
2022/07/19 11:17:22;;;;;;;0.90;0.67;;;35.30;99.90;;;;;;5110490;28;20551;-70
2022/07/19 11:20:01;;;;;;;1.77;0.80;;;35.50;99.90;;;;;;5112802;28;20471;-69
2022/07/19 11:22:33;;;;;;;1.10;0.80;;;35.80;99.90;;;;;;5112339;28;20452;-70
2022/07/19 11:25:00;;;;;;;0.90;0.70;;;36.20;99.90;;;;;;5110228;28;20471;-71
2022/07/19 11:27:29;;;;;;;0.70;0.60;;;36.50;99.90;;;;;;5112022;28;20501;-70
2022/07/19 11:29:57;;;;;;;0.80;0.60;;;36.40;99.90;;;;;;5113940;28;20448;-70
2022/07/19 11:32:24;;;;;;;3.10;0.60;;;36.60;99.90;;;;;;5116734;28;20487;-70
2022/07/19 11:34:55;;;;;;;2.10;0.70;;;36.90;99.90;;;;;;5117234;28;20490;-70
2022/07/19 11:37:26;;;;;;;0.80;0.70;;;37.30;99.90;;;;;;5118101;28;20444;-70
2022/07/19 11:39:52;;;;;;;0.80;0.70;;;37.40;99.90;;;;;;5113447;28;20564;-70
2022/07/19 11:42:31;;;;;;;0.90;0.53;;;37.30;99.90;;;;;;5095653;28;20873;-71
2022/07/19 11:44:58;;;;;;;0.97;0.60;;;37.30;99.90;;;;;;5094202;28;20449;-70
2022/07/19 11:47:25;;;;;;;0.80;0.60;;;37.20;99.90;;;;;;5095343;28;20485;-70
2022/07/19 11:49:52;;;;;;;0.90;0.70;;;37.20;99.90;;;;;;5095909;28;20449;-71
2022/07/19 11:52:19;;;;;;;1.30;0.60;;;37.20;99.90;;;;;;5094817;28;20485;-70
2022/07/19 11:55:00;;;;;;;0.80;0.60;;;37.30;99.90;;;;;;5096415;28;20453;-71
2022/07/19 11:57:28;;;;;;;0.70;0.60;;;37.10;99.90;;;;;;5094477;28;20461;-70
2022/07/19 11:59:55;;;;;;;0.70;0.60;;;36.90;99.90;;;;;;5094882;28;20556;-71
2022/07/19 12:02:22;;;;;;;2.10;0.70;;;36.80;99.90;;;;;;5093692;28;20815;-70
2022/07/19 12:04:49;;;;;;;0.80;0.60;;;36.80;99.90;;;;;;5093459;28;20552;-70
2022/07/19 12:07:18;;;;;;;0.87;0.60;;;36.80;99.90;;;;;;5096348;28;20469;-71
2022/07/19 12:09:45;;;;;;;0.80;0.60;;;37.10;99.90;;;;;;5095338;28;20475;-70
2022/07/19 12:12:14;;;;;;;0.80;0.60;;;37.00;99.90;;;;;;5095066;28;20484;-70
2022/07/19 12:14:43;;;;;;;0.80;0.60;;;37.10;99.90;;;;;;5092434;28;20483;-69
2022/07/19 12:17:11;;;;;;;1.37;0.77;;;37.20;99.90;;;;;;5095833;28;20477;-70
2022/07/19 12:19:38;;;;;;;0.70;0.60;;;37.30;99.90;;;;;;5095673;28;20489;-70
2022/07/19 12:22:06;;;;;;;1.23;0.70;;;37.50;99.90;;;;;;5096468;28;20485;-70
2022/07/19 12:24:43;;;;;;;0.90;0.70;;;37.80;99.90;;;;;;5097063;28;20466;-69
2022/07/19 12:27:10;;;;;;;0.80;0.60;;;38.00;99.90;;;;;;5096001;28;20441;-71
2022/07/19 12:29:46;;;;;;;0.70;0.60;;;37.70;99.90;;;;;;5097112;28;20538;-73
2022/07/19 12:32:27;;;;;;;1.70;0.70;;;37.80;99.90;;;;;;5097228;28;20928;-70
2022/07/19 12:34:57;;;;;;;1.77;1.07;;;37.60;99.90;;;;;;5096318;28;20456;-72
2022/07/19 12:37:27;;;;;;;0.70;0.50;;;37.80;99.90;;;;;;5095610;28;20618;-71
2022/07/19 12:40:05;;;;;;;0.80;0.67;;;37.90;99.90;;;;;;5096556;28;20837;-72
2022/07/19 12:42:41;;;;;;;0.90;0.70;;;37.60;99.90;;;;;;5095872;28;20445;-72
2022/07/19 12:45:13;;;;;;;1.60;0.80;;;37.60;99.90;;;;;;5095982;28;20449;-72
2022/07/19 12:47:41;;;;;;;2.00;0.90;;;37.50;99.90;;;;;;5095571;28;20563;-72
2022/07/19 12:50:09;;;;;;;0.93;0.80;;;37.10;99.90;;;;;;5096685;28;20540;-70
2022/07/19 12:52:40;;;;;;;2.13;0.90;;;37.40;99.90;;;;;;5095208;28;20496;-72
2022/07/19 12:55:08;;;;;;;1.10;0.70;;;37.40;99.90;;;;;;5097216;28;20449;-73
2022/07/19 12:57:36;;;;;;;0.90;0.70;;;37.70;99.90;;;;;;5096722;28;20521;-73
2022/07/19 13:00:03;;;;;;;1.40;0.60;;;37.50;99.90;;;;;;5094750;28;20464;-71